sensor_id;sensor_type;location;lat;lon;timestamp;pressure;altitude;pressure_sealevel;temperature;humidity
13478;BME280;12598;62.382;17.344;2023-12-22T00:00:40;97526.22;;;15.71;26.29
13478;BME280;12598;62.382;17.344;2023-12-22T00:01:41;97531.53;;;15.71;26.15
13478;BME280;12598;62.382;17.344;2023-12-22T00:02:43;97531.53;;;15.71;26.31
13478;BME280;12598;62.382;17.344;2023-12-22T00:03:45;97528.03;;;15.71;26.37
13478;BME280;12598;62.382;17.344;2023-12-22T00:04:47;97531.53;;;15.71;26.13
13478;BME280;12598;62.382;17.344;2023-12-22T00:05:49;97531.31;;;15.73;26.38
13478;BME280;12598;62.382;17.344;2023-12-22T00:06:51;97531.53;;;15.71;26.42
13478;BME280;12598;62.382;17.344;2023-12-22T00:07:53;97528.88;;;15.71;26.71
13478;BME280;12598;62.382;17.344;2023-12-22T00:08:55;97535.00;;;15.72;26.48
13478;BME280;12598;62.382;17.344;2023-12-22T00:09:57;97538.69;;;15.71;26.61
13478;BME280;12598;62.382;17.344;2023-12-22T00:10:59;97534.19;;;15.71;26.51
13478;BME280;12598;62.382;17.344;2023-12-22T00:12:01;97542.19;;;15.71;26.61
13478;BME280;12598;62.382;17.344;2023-12-22T00:13:03;97536.84;;;15.71;26.27
13478;BME280;12598;62.382;17.344;2023-12-22T00:14:05;97545.88;;;15.70;26.21
13478;BME280;12598;62.382;17.344;2023-12-22T00:15:07;97539.72;;;15.70;26.22
13478;BME280;12598;62.382;17.344;2023-12-22T00:16:09;97541.59;;;15.69;26.45
13478;BME280;12598;62.382;17.344;2023-12-22T00:17:12;97538.91;;;15.69;26.50
13478;BME280;12598;62.382;17.344;2023-12-22T00:18:13;97538.91;;;15.69;26.16
13478;BME280;12598;62.382;17.344;2023-12-22T00:19:15;97534.41;;;15.70;26.43
13478;BME280;12598;62.382;17.344;2023-12-22T00:20:17;97539.72;;;15.70;26.16
13478;BME280;12598;62.382;17.344;2023-12-22T00:21:20;97538.09;;;15.69;26.22
13478;BME280;12598;62.382;17.344;2023-12-22T00:22:22;97540.75;;;15.69;26.32
13478;BME280;12598;62.382;17.344;2023-12-22T00:23:24;97543.41;;;15.69;26.49
13478;BME280;12598;62.382;17.344;2023-12-22T00:24:26;97552.44;;;15.68;26.53
13478;BME280;12598;62.382;17.344;2023-12-22T00:25:27;97547.94;;;15.68;26.16
13478;BME280;12598;62.382;17.344;2023-12-22T00:26:29;97547.94;;;15.68;26.40
13478;BME280;12598;62.382;17.344;2023-12-22T00:27:31;97553.25;;;15.68;26.68
13478;BME280;12598;62.382;17.344;2023-12-22T00:28:33;97546.31;;;15.67;26.53
13478;BME280;12598;62.382;17.344;2023-12-22T00:29:34;97561.44;;;15.67;26.64
13478;BME280;12598;62.382;17.344;2023-12-22T00:30:38;97556.94;;;15.67;26.64
13478;BME280;12598;62.382;17.344;2023-12-22T00:31:40;97540.97;;;15.67;26.37
13478;BME280;12598;62.382;17.344;2023-12-22T00:32:42;97548.13;;;15.67;26.64
13478;BME280;12598;62.382;17.344;2023-12-22T00:33:44;97536.50;;;15.61;26.44
13478;BME280;12598;62.382;17.344;2023-12-22T00:34:46;97549.16;;;15.66;26.51
13478;BME280;12598;62.382;17.344;2023-12-22T00:35:47;97547.53;;;15.65;26.24
13478;BME280;12598;62.382;17.344;2023-12-22T00:36:49;97548.34;;;15.65;26.27
13478;BME280;12598;62.382;17.344;2023-12-22T00:37:51;97556.34;;;15.65;26.56
13478;BME280;12598;62.382;17.344;2023-12-22T00:38:54;97554.72;;;15.64;26.53
13478;BME280;12598;62.382;17.344;2023-12-22T00:39:56;97549.16;;;15.66;26.53
13478;BME280;12598;62.382;17.344;2023-12-22T00:40:58;97552.84;;;15.65;26.23
13478;BME280;12598;62.382;17.344;2023-12-22T00:42:00;97559.00;;;15.65;26.49
13478;BME280;12598;62.382;17.344;2023-12-22T00:43:03;97552.03;;;15.64;26.44
13478;BME280;12598;62.382;17.344;2023-12-22T00:44:04;97558.16;;;15.65;26.32
13478;BME280;12598;62.382;17.344;2023-12-22T00:45:06;97554.72;;;15.64;26.37
13478;BME280;12598;62.382;17.344;2023-12-22T00:46:08;97556.53;;;15.64;26.58
13478;BME280;12598;62.382;17.344;2023-12-22T00:47:10;97552.84;;;15.65;26.66
13478;BME280;12598;62.382;17.344;2023-12-22T00:48:12;97562.69;;;15.64;26.30
13478;BME280;12598;62.382;17.344;2023-12-22T00:49:14;97567.19;;;15.64;26.36
13478;BME280;12598;62.382;17.344;2023-12-22T00:50:16;97560.03;;;15.58;26.43
13478;BME280;12598;62.382;17.344;2023-12-22T00:51:17;97558.41;;;15.63;26.60
13478;BME280;12598;62.382;17.344;2023-12-22T00:52:19;97566.38;;;15.63;26.69
13478;BME280;12598;62.382;17.344;2023-12-22T00:53:21;97566.59;;;15.62;26.65
13478;BME280;12598;62.382;17.344;2023-12-22T00:54:23;97577.22;;;15.62;26.40
13478;BME280;12598;62.382;17.344;2023-12-22T00:55:25;97566.38;;;15.57;26.48
13478;BME280;12598;62.382;17.344;2023-12-22T00:56:26;97574.38;;;15.57;26.46
13478;BME280;12598;62.382;17.344;2023-12-22T00:57:28;97583.59;;;15.61;26.54
13478;BME280;12598;62.382;17.344;2023-12-22T00:58:31;97572.75;;;15.56;26.51
13478;BME280;12598;62.382;17.344;2023-12-22T00:59:34;97586.06;;;15.62;26.64
13478;BME280;12598;62.382;17.344;2023-12-22T01:00:36;97576.63;;;15.60;26.48
13478;BME280;12598;62.382;17.344;2023-12-22T01:01:38;97576.44;;;15.61;26.28
13478;BME280;12598;62.382;17.344;2023-12-22T01:02:40;97575.00;;;15.59;26.49
13478;BME280;12598;62.382;17.344;2023-12-22T01:03:42;97573.34;;;15.58;26.35
13478;BME280;12598;62.382;17.344;2023-12-22T01:04:44;97584.59;;;15.60;26.41
13478;BME280;12598;62.382;17.344;2023-12-22T01:05:46;97577.47;;;15.60;26.66
13478;BME280;12598;62.382;17.344;2023-12-22T01:06:48;97583.59;;;15.61;26.50
13478;BME280;12598;62.382;17.344;2023-12-22T01:07:50;97578.25;;;15.61;26.74
13478;BME280;12598;62.382;17.344;2023-12-22T01:08:52;97582.97;;;15.59;26.40
13478;BME280;12598;62.382;17.344;2023-12-22T01:09:54;97584.59;;;15.60;26.59
13478;BME280;12598;62.382;17.344;2023-12-22T01:10:56;97562.53;;;15.46;26.55
13478;BME280;12598;62.382;17.344;2023-12-22T01:11:58;97585.44;;;15.60;26.68
13478;BME280;12598;62.382;17.344;2023-12-22T01:13:00;97572.13;;;15.54;26.41
13478;BME280;12598;62.382;17.344;2023-12-22T01:14:03;97589.94;;;15.60;26.43
13478;BME280;12598;62.382;17.344;2023-12-22T01:15:05;97585.63;;;15.59;26.45
13478;BME280;12598;62.382;17.344;2023-12-22T01:16:07;97586.47;;;15.59;26.45
13478;BME280;12598;62.382;17.344;2023-12-22T01:17:09;97594.47;;;15.59;26.57
13478;BME280;12598;62.382;17.344;2023-12-22T01:18:11;97593.63;;;15.59;26.26
13478;BME280;12598;62.382;17.344;2023-12-22T01:19:13;97590.97;;;15.59;26.83
13478;BME280;12598;62.382;17.344;2023-12-22T01:20:15;97592.59;;;15.60;26.41
13478;BME280;12598;62.382;17.344;2023-12-22T01:21:17;97594.47;;;15.59;26.40
13478;BME280;12598;62.382;17.344;2023-12-22T01:22:19;97597.94;;;15.60;26.63
13478;BME280;12598;62.382;17.344;2023-12-22T01:23:21;97597.94;;;15.60;26.55
13478;BME280;12598;62.382;17.344;2023-12-22T01:24:22;97601.63;;;15.59;26.52
13478;BME280;12598;62.382;17.344;2023-12-22T01:25:24;97594.88;;;15.50;26.72
13478;BME280;12598;62.382;17.344;2023-12-22T01:26:26;97599.97;;;15.58;26.70
13478;BME280;12598;62.382;17.344;2023-12-22T01:27:28;97598.34;;;15.57;26.46
13478;BME280;12598;62.382;17.344;2023-12-22T01:28:30;97610.63;;;15.58;26.67
13478;BME280;12598;62.382;17.344;2023-12-22T01:29:32;97600.81;;;15.58;26.35
13478;BME280;12598;62.382;17.344;2023-12-22T01:30:33;97603.66;;;15.57;26.67
13478;BME280;12598;62.382;17.344;2023-12-22T01:31:35;97605.31;;;15.58;26.49
13478;BME280;12598;62.382;17.344;2023-12-22T01:32:37;97606.34;;;15.57;26.68
13478;BME280;12598;62.382;17.344;2023-12-22T01:33:39;97611.47;;;15.58;26.48
13478;BME280;12598;62.382;17.344;2023-12-22T01:34:41;97603.66;;;15.57;26.67
13478;BME280;12598;62.382;17.344;2023-12-22T01:35:43;97603.66;;;15.57;26.56
13478;BME280;12598;62.382;17.344;2023-12-22T01:36:45;97587.50;;;15.52;26.29
13478;BME280;12598;62.382;17.344;2023-12-22T01:37:46;97599.19;;;15.57;26.56
13478;BME280;12598;62.382;17.344;2023-12-22T01:38:50;97601.63;;;15.59;26.59
13478;BME280;12598;62.382;17.344;2023-12-22T01:39:52;97606.94;;;15.59;26.48
13478;BME280;12598;62.382;17.344;2023-12-22T01:40:55;97612.50;;;15.57;26.63
13478;BME280;12598;62.382;17.344;2023-12-22T01:41:57;97599.97;;;15.51;26.78
13478;BME280;12598;62.382;17.344;2023-12-22T01:43:00;97610.03;;;15.56;26.51
13478;BME280;12598;62.382;17.344;2023-12-22T01:44:02;97609.41;;;15.54;26.58
13478;BME280;12598;62.382;17.344;2023-12-22T01:45:04;97621.28;;;15.58;26.55
13478;BME280;12598;62.382;17.344;2023-12-22T01:46:06;97620.25;;;15.59;26.67
13478;BME280;12598;62.382;17.344;2023-12-22T01:47:11;97617.59;;;15.59;26.71
13478;BME280;12598;62.382;17.344;2023-12-22T01:48:13;97607.78;;;15.53;26.49
13478;BME280;12598;62.382;17.344;2023-12-22T01:49:15;97621.28;;;15.58;26.59
13478;BME280;12598;62.382;17.344;2023-12-22T01:50:17;97611.28;;;15.53;26.51
13478;BME280;12598;62.382;17.344;2023-12-22T01:51:20;97616.78;;;15.58;26.78
13478;BME280;12598;62.382;17.344;2023-12-22T01:52:22;97620.47;;;15.57;26.53
13478;BME280;12598;62.382;17.344;2023-12-22T01:53:24;97619.66;;;15.57;26.80
13478;BME280;12598;62.382;17.344;2023-12-22T01:54:27;97621.28;;;15.58;26.42
13478;BME280;12598;62.382;17.344;2023-12-22T01:55:29;97612.69;;;15.56;26.78
13478;BME280;12598;62.382;17.344;2023-12-22T01:56:31;97616.97;;;15.57;26.48
13478;BME280;12598;62.382;17.344;2023-12-22T01:57:33;97618.84;;;15.56;nan
13478;BME280;12598;62.382;17.344;2023-12-22T01:58:37;97610.84;;;15.50;26.47
13478;BME280;12598;62.382;17.344;2023-12-22T01:59:50;97601.22;;;15.49;26.68
13478;BME280;12598;62.382;17.344;2023-12-22T02:00:53;97615.97;;;15.58;26.43
13478;BME280;12598;62.382;17.344;2023-12-22T02:01:55;97618.63;;;15.58;26.67
13478;BME280;12598;62.382;17.344;2023-12-22T02:02:57;97620.47;;;15.57;26.74
13478;BME280;12598;62.382;17.344;2023-12-22T02:03:59;97615.34;;;15.56;26.51
13478;BME280;12598;62.382;17.344;2023-12-22T02:05:01;97621.28;;;15.58;26.67
13478;BME280;12598;62.382;17.344;2023-12-22T02:06:04;97623.34;;;15.56;26.77
13478;BME280;12598;62.382;17.344;2023-12-22T02:07:08;97627.03;;;15.55;26.87
13478;BME280;12598;62.382;17.344;2023-12-22T02:08:11;97626.22;;;15.54;26.63
13478;BME280;12598;62.382;17.344;2023-12-22T02:09:13;97627.63;;;15.57;26.79
13478;BME280;12598;62.382;17.344;2023-12-22T02:10:15;97625.19;;;15.55;26.64
13478;BME280;12598;62.382;17.344;2023-12-22T02:11:17;97627.44;;;15.52;26.59
13478;BME280;12598;62.382;17.344;2023-12-22T02:12:18;97636.66;;;15.56;26.90
13478;BME280;12598;62.382;17.344;2023-12-22T02:13:20;97635.84;;;15.55;26.95
13478;BME280;12598;62.382;17.344;2023-12-22T02:14:22;97630.69;;;15.47;26.58
13478;BME280;12598;62.382;17.344;2023-12-22T02:15:24;97647.91;;;15.58;27.08
13478;BME280;12598;62.382;17.344;2023-12-22T02:16:44;97641.13;;;15.62;26.64
13478;BME280;12598;62.382;17.344;2023-12-22T02:18:55;97639.09;;;15.64;26.79
13478;BME280;12598;62.382;17.344;2023-12-22T02:19:59;97645.25;;;15.64;26.67
13478;BME280;12598;62.382;17.344;2023-12-22T02:21:02;97640.13;;;15.63;26.59
13478;BME280;12598;62.382;17.344;2023-12-22T02:22:06;97640.13;;;15.63;26.73
13478;BME280;12598;62.382;17.344;2023-12-22T02:23:11;97639.09;;;15.64;26.81
13478;BME280;12598;62.382;17.344;2023-12-22T02:24:12;97641.75;;;15.64;26.41
13478;BME280;12598;62.382;17.344;2023-12-22T02:25:14;97643.59;;;15.63;26.87
13478;BME280;12598;62.382;17.344;2023-12-22T02:26:35;97643.81;;;15.62;26.82
13478;BME280;12598;62.382;17.344;2023-12-22T02:27:45;97640.31;;;15.68;26.53
13478;BME280;12598;62.382;17.344;2023-12-22T02:28:50;97647.28;;;15.69;26.53
13478;BME280;12598;62.382;17.344;2023-12-22T02:30:00;97644.81;;;15.67;26.64
13478;BME280;12598;62.382;17.344;2023-12-22T02:31:10;97641.34;;;15.67;26.46
13478;BME280;12598;62.382;17.344;2023-12-22T02:32:27;97648.50;;;15.73;26.75
13478;BME280;12598;62.382;17.344;2023-12-22T02:33:33;97649.75;;;15.70;26.58
13478;BME280;12598;62.382;17.344;2023-12-22T02:34:37;97651.56;;;15.70;26.69
13478;BME280;12598;62.382;17.344;2023-12-22T02:35:44;97645.44;;;15.69;26.67
13478;BME280;12598;62.382;17.344;2023-12-22T02:36:47;97636.03;;;15.60;26.53
13478;BME280;12598;62.382;17.344;2023-12-22T02:37:52;97648.28;;;15.68;27.03
13478;BME280;12598;62.382;17.344;2023-12-22T02:38:54;97649.13;;;15.68;27.00
13478;BME280;12598;62.382;17.344;2023-12-22T02:39:58;97651.97;;;15.67;26.37
13478;BME280;12598;62.382;17.344;2023-12-22T02:41:01;97636.03;;;15.60;26.56
13478;BME280;12598;62.382;17.344;2023-12-22T02:42:04;97643.38;;;15.65;26.55
13478;BME280;12598;62.382;17.344;2023-12-22T02:43:07;97653.84;;;15.66;26.80
13478;BME280;12598;62.382;17.344;2023-12-22T02:44:10;97653.00;;;15.66;26.62
13478;BME280;12598;62.382;17.344;2023-12-22T02:45:16;97641.38;;;15.60;26.73
13478;BME280;12598;62.382;17.344;2023-12-22T02:46:18;97653.84;;;15.66;26.78
13478;BME280;12598;62.382;17.344;2023-12-22T02:47:20;97656.50;;;15.66;26.56
13478;BME280;12598;62.382;17.344;2023-12-22T02:48:22;97656.50;;;15.66;26.60
13478;BME280;12598;62.382;17.344;2023-12-22T02:49:24;97660.19;;;15.65;26.50
13478;BME280;12598;62.382;17.344;2023-12-22T02:50:26;97646.88;;;15.59;26.50
13478;BME280;12598;62.382;17.344;2023-12-22T02:51:28;97663.88;;;15.64;26.69
13478;BME280;12598;62.382;17.344;2023-12-22T02:52:30;97659.38;;;15.65;26.51
13478;BME280;12598;62.382;17.344;2023-12-22T02:53:34;97650.75;;;15.63;26.41
13478;BME280;12598;62.382;17.344;2023-12-22T02:54:35;97657.53;;;15.65;26.57
13478;BME280;12598;62.382;17.344;2023-12-22T02:55:41;97661.84;;;15.66;26.41
13478;BME280;12598;62.382;17.344;2023-12-22T02:56:46;97663.06;;;15.64;26.64
13478;BME280;12598;62.382;17.344;2023-12-22T02:57:47;97659.38;;;15.65;26.44
13478;BME280;12598;62.382;17.344;2023-12-22T02:58:50;97661.84;;;15.66;26.73
13478;BME280;12598;62.382;17.344;2023-12-22T02:59:52;97626.81;;;15.43;26.48
13478;BME280;12598;62.382;17.344;2023-12-22T03:00:54;97656.69;;;15.65;26.67
13478;BME280;12598;62.382;17.344;2023-12-22T03:01:55;97666.31;;;15.66;26.80
13478;BME280;12598;62.382;17.344;2023-12-22T03:02:58;97646.69;;;15.60;26.50
13478;BME280;12598;62.382;17.344;2023-12-22T03:03:59;97663.66;;;15.66;26.50
13478;BME280;12598;62.382;17.344;2023-12-22T03:05:01;97664.69;;;15.65;26.46
13478;BME280;12598;62.382;17.344;2023-12-22T03:06:03;97663.66;;;15.66;26.68
13478;BME280;12598;62.382;17.344;2023-12-22T03:07:05;97663.06;;;15.64;26.42
13478;BME280;12598;62.382;17.344;2023-12-22T03:08:07;97670.63;;;15.67;26.74
13478;BME280;12598;62.382;17.344;2023-12-22T03:09:09;97667.16;;;15.66;26.30
13478;BME280;12598;62.382;17.344;2023-12-22T03:10:11;97670.63;;;15.67;26.50
13478;BME280;12598;62.382;17.344;2023-12-22T03:11:13;97664.69;;;15.65;26.54
13478;BME280;12598;62.382;17.344;2023-12-22T03:12:15;97678.63;;;15.67;26.60
13478;BME280;12598;62.382;17.344;2023-12-22T03:13:16;97670.63;;;15.67;26.30
13478;BME280;12598;62.382;17.344;2023-12-22T03:14:18;97669.00;;;15.66;26.40
13478;BME280;12598;62.382;17.344;2023-12-22T03:15:20;97675.16;;;15.66;26.51
13478;BME280;12598;62.382;17.344;2023-12-22T03:16:22;97666.31;;;15.66;26.67
13478;BME280;12598;62.382;17.344;2023-12-22T03:17:24;97665.31;;;15.60;26.51
13478;BME280;12598;62.382;17.344;2023-12-22T03:18:26;97674.31;;;15.66;26.49
13478;BME280;12598;62.382;17.344;2023-12-22T03:19:28;97662.66;;;15.60;26.32
13478;BME280;12598;62.382;17.344;2023-12-22T03:20:29;97669.81;;;15.66;26.38
13478;BME280;12598;62.382;17.344;2023-12-22T03:21:31;97675.16;;;15.66;26.58
13478;BME280;12598;62.382;17.344;2023-12-22T03:22:33;97658.13;;;15.61;26.60
13478;BME280;12598;62.382;17.344;2023-12-22T03:23:35;97673.31;;;15.60;26.23
13478;BME280;12598;62.382;17.344;2023-12-22T03:24:37;97676.97;;;15.66;26.53
13478;BME280;12598;62.382;17.344;2023-12-22T03:25:40;97679.88;;;15.64;26.23
13478;BME280;12598;62.382;17.344;2023-12-22T03:26:42;97681.28;;;15.67;26.61
13478;BME280;12598;62.382;17.344;2023-12-22T03:27:44;97676.19;;;15.65;26.37
13478;BME280;12598;62.382;17.344;2023-12-22T03:28:45;97674.31;;;15.66;26.36
13478;BME280;12598;62.382;17.344;2023-12-22T03:29:47;97669.00;;;15.66;26.28
13478;BME280;12598;62.382;17.344;2023-12-22T03:30:49;97670.00;;;15.65;26.42
13478;BME280;12598;62.382;17.344;2023-12-22T03:31:51;97669.00;;;15.66;26.42
13478;BME280;12598;62.382;17.344;2023-12-22T03:32:53;97669.81;;;15.66;26.57
13478;BME280;12598;62.382;17.344;2023-12-22T03:33:55;97664.69;;;15.65;26.30
13478;BME280;12598;62.382;17.344;2023-12-22T03:34:57;97665.53;;;15.65;26.43
13478;BME280;12598;62.382;17.344;2023-12-22T03:35:59;97669.22;;;15.64;26.49
13478;BME280;12598;62.382;17.344;2023-12-22T03:37:00;97679.03;;;15.64;26.38
13478;BME280;12598;62.382;17.344;2023-12-22T03:38:02;97673.09;;;15.62;26.09
13478;BME280;12598;62.382;17.344;2023-12-22T03:39:05;97675.34;;;15.65;26.64
13478;BME280;12598;62.382;17.344;2023-12-22T03:40:07;97681.69;;;15.64;26.33
13478;BME280;12598;62.382;17.344;2023-12-22T03:41:11;97679.03;;;15.64;26.41
13478;BME280;12598;62.382;17.344;2023-12-22T03:42:13;97679.03;;;15.64;26.55
13478;BME280;12598;62.382;17.344;2023-12-22T03:43:14;97679.03;;;15.64;26.40
13478;BME280;12598;62.382;17.344;2023-12-22T03:44:16;97677.41;;;15.63;26.36
13478;BME280;12598;62.382;17.344;2023-12-22T03:45:18;97684.34;;;15.64;26.39
13478;BME280;12598;62.382;17.344;2023-12-22T03:46:20;97680.06;;;15.63;26.50
13478;BME280;12598;62.382;17.344;2023-12-22T03:47:22;97678.22;;;15.63;26.34
13478;BME280;12598;62.382;17.344;2023-12-22T03:48:24;97679.25;;;15.62;26.40
13478;BME280;12598;62.382;17.344;2023-12-22T03:49:26;97681.06;;;15.62;26.35
13478;BME280;12598;62.382;17.344;2023-12-22T03:50:28;97681.91;;;15.62;26.34
13478;BME280;12598;62.382;17.344;2023-12-22T03:51:29;97681.91;;;15.62;26.46
13478;BME280;12598;62.382;17.344;2023-12-22T03:52:31;97684.75;;;15.61;26.19
13478;BME280;12598;62.382;17.344;2023-12-22T03:53:33;97681.06;;;15.62;26.30
13478;BME280;12598;62.382;17.344;2023-12-22T03:54:35;97681.91;;;15.56;26.29
13478;BME280;12598;62.382;17.344;2023-12-22T03:55:37;97687.25;;;15.62;26.39
13478;BME280;12598;62.382;17.344;2023-12-22T03:56:39;97689.06;;;15.62;26.30
13478;BME280;12598;62.382;17.344;2023-12-22T03:57:41;97693.38;;;15.63;26.23
13478;BME280;12598;62.382;17.344;2023-12-22T03:58:43;97686.41;;;15.62;26.13
13478;BME280;12598;62.382;17.344;2023-12-22T03:59:44;97687.44;;;15.61;26.38
13478;BME280;12598;62.382;17.344;2023-12-22T04:00:46;97691.72;;;15.62;26.43
13478;BME280;12598;62.382;17.344;2023-12-22T04:01:52;97679.22;;;15.49;26.36
13478;BME280;12598;62.382;17.344;2023-12-22T04:02:58;97690.31;;;15.59;26.37
13478;BME280;12598;62.382;17.344;2023-12-22T04:04:00;97689.69;;;15.64;26.14
13478;BME280;12598;62.382;17.344;2023-12-22T04:05:02;97693.38;;;15.63;26.38
13478;BME280;12598;62.382;17.344;2023-12-22T04:06:04;97694.19;;;15.63;26.26
13478;BME280;12598;62.382;17.344;2023-12-22T04:07:06;97696.03;;;15.63;26.43
13478;BME280;12598;62.382;17.344;2023-12-22T04:08:08;97693.38;;;15.63;26.09
13478;BME280;12598;62.382;17.344;2023-12-22T04:09:10;97696.03;;;15.63;26.06
13478;BME280;12598;62.382;17.344;2023-12-22T04:10:12;97689.47;;;15.59;26.40
13478;BME280;12598;62.382;17.344;2023-12-22T04:11:14;97689.91;;;15.62;26.20
13478;BME280;12598;62.382;17.344;2023-12-22T04:12:15;97683.97;;;15.54;26.45
13478;BME280;12598;62.382;17.344;2023-12-22T04:13:17;97703.41;;;15.61;26.46
13478;BME280;12598;62.382;17.344;2023-12-22T04:14:19;97700.75;;;15.61;26.35
13478;BME280;12598;62.382;17.344;2023-12-22T04:15:21;97700.75;;;15.61;26.03
13478;BME280;12598;62.382;17.344;2023-12-22T04:16:22;97689.91;;;15.56;26.15
13478;BME280;12598;62.382;17.344;2023-12-22T04:17:24;97696.25;;;15.61;26.28
13478;BME280;12598;62.382;17.344;2023-12-22T04:18:26;97705.88;;;15.62;26.03
13478;BME280;12598;62.382;17.344;2023-12-22T04:19:28;97706.06;;;15.61;26.31
13478;BME280;12598;62.382;17.344;2023-12-22T04:20:30;97700.97;;;15.59;26.12
13478;BME280;12598;62.382;17.344;2023-12-22T04:21:32;97701.56;;;15.55;26.36
13478;BME280;12598;62.382;17.344;2023-12-22T04:22:34;97707.72;;;15.62;26.10
13478;BME280;12598;62.382;17.344;2023-12-22T04:23:35;97716.72;;;15.61;26.11
13478;BME280;12598;62.382;17.344;2023-12-22T04:24:38;97715.69;;;15.62;26.02
13478;BME280;12598;62.382;17.344;2023-12-22T04:25:39;97721.03;;;15.62;26.34
13478;BME280;12598;62.382;17.344;2023-12-22T04:26:41;97718.34;;;15.62;26.29
13478;BME280;12598;62.382;17.344;2023-12-22T04:27:43;97713.03;;;15.62;26.21
13478;BME280;12598;62.382;17.344;2023-12-22T04:28:45;97717.97;;;15.58;26.37
13478;BME280;12598;62.382;17.344;2023-12-22T04:29:46;97719.38;;;15.61;26.30
13478;BME280;12598;62.382;17.344;2023-12-22T04:30:48;97716.53;;;15.62;25.98
13478;BME280;12598;62.382;17.344;2023-12-22T04:31:50;97717.56;;;15.61;25.98
13478;BME280;12598;62.382;17.344;2023-12-22T04:32:52;97718.56;;;15.60;25.97
13478;BME280;12598;62.382;17.344;2023-12-22T04:33:54;97720.22;;;15.61;25.65
13478;BME280;12598;62.382;17.344;2023-12-22T04:34:57;97725.53;;;15.61;26.18
13478;BME280;12598;62.382;17.344;2023-12-22T04:35:59;97720.00;;;15.63;25.99
13478;BME280;12598;62.382;17.344;2023-12-22T04:37:01;97718.34;;;15.62;25.94
13478;BME280;12598;62.382;17.344;2023-12-22T04:38:03;97725.31;;;15.63;25.92
13478;BME280;12598;62.382;17.344;2023-12-22T04:39:05;97729.00;;;15.62;26.18
13478;BME280;12598;62.382;17.344;2023-12-22T04:40:07;97723.69;;;15.55;26.00
13478;BME280;12598;62.382;17.344;2023-12-22T04:41:09;97732.50;;;15.62;25.75
13478;BME280;12598;62.382;17.344;2023-12-22T04:42:10;97736.81;;;15.63;25.84
13478;BME280;12598;62.382;17.344;2023-12-22T04:43:12;97727.97;;;15.63;25.84
13478;BME280;12598;62.382;17.344;2023-12-22T04:44:14;97746.63;;;15.63;25.98
13478;BME280;12598;62.382;17.344;2023-12-22T04:45:16;97731.69;;;15.55;25.84
13478;BME280;12598;62.382;17.344;2023-12-22T04:46:18;97745.59;;;15.64;26.02
13478;BME280;12598;62.382;17.344;2023-12-22T04:47:20;97735.34;;;15.61;26.05
13478;BME280;12598;62.382;17.344;2023-12-22T04:48:22;97746.63;;;15.63;26.01
13478;BME280;12598;62.382;17.344;2023-12-22T04:49:24;97748.25;;;15.64;26.20
13478;BME280;12598;62.382;17.344;2023-12-22T04:50:26;97741.31;;;15.63;26.11
13478;BME280;12598;62.382;17.344;2023-12-22T04:51:27;97742.13;;;15.63;25.78
13478;BME280;12598;62.382;17.344;2023-12-22T04:52:29;97744.78;;;15.63;26.12
13478;BME280;12598;62.382;17.344;2023-12-22T04:53:31;97748.25;;;15.64;25.75
13478;BME280;12598;62.382;17.344;2023-12-22T04:54:33;97742.94;;;15.64;26.04
13478;BME280;12598;62.382;17.344;2023-12-22T04:55:35;97749.91;;;15.65;26.05
13478;BME280;12598;62.382;17.344;2023-12-22T04:56:37;97753.59;;;15.64;25.74
13478;BME280;12598;62.382;17.344;2023-12-22T04:57:39;97751.75;;;15.64;25.80
13478;BME280;12598;62.382;17.344;2023-12-22T04:58:40;97754.41;;;15.64;26.01
13478;BME280;12598;62.382;17.344;2023-12-22T04:59:42;97742.97;;;15.57;25.82
13478;BME280;12598;62.382;17.344;2023-12-22T05:00:44;97748.25;;;15.64;25.59
13478;BME280;12598;62.382;17.344;2023-12-22T05:01:46;97745.59;;;15.64;26.05
13478;BME280;12598;62.382;17.344;2023-12-22T05:02:48;97747.47;;;15.63;25.94
13478;BME280;12598;62.382;17.344;2023-12-22T05:03:50;97747.47;;;15.63;25.99
13478;BME280;12598;62.382;17.344;2023-12-22T05:04:52;97751.94;;;15.63;26.08
13478;BME280;12598;62.382;17.344;2023-12-22T05:05:54;97759.75;;;15.64;25.65
13478;BME280;12598;62.382;17.344;2023-12-22T05:06:56;97742.72;;;15.59;25.91
13478;BME280;12598;62.382;17.344;2023-12-22T05:07:57;97757.28;;;15.63;25.42
13478;BME280;12598;62.382;17.344;2023-12-22T05:08:59;97753.59;;;15.64;25.98
13478;BME280;12598;62.382;17.344;2023-12-22T05:10:01;97749.28;;;15.63;25.77
13478;BME280;12598;62.382;17.344;2023-12-22T05:11:04;97750.31;;;15.62;25.80
13478;BME280;12598;62.382;17.344;2023-12-22T05:12:06;97763.44;;;15.63;25.90
13478;BME280;12598;62.382;17.344;2023-12-22T05:13:08;97751.94;;;15.63;25.72
13478;BME280;12598;62.382;17.344;2023-12-22T05:14:10;97742.13;;;15.57;25.66
13478;BME280;12598;62.382;17.344;2023-12-22T05:15:12;97751.94;;;15.63;26.17
13478;BME280;12598;62.382;17.344;2023-12-22T05:16:14;97738.22;;;15.53;25.77
13478;BME280;12598;62.382;17.344;2023-12-22T05:17:16;97749.50;;;15.61;26.19
13478;BME280;12598;62.382;17.344;2023-12-22T05:18:18;97747.66;;;15.62;25.95
13478;BME280;12598;62.382;17.344;2023-12-22T05:19:20;97752.97;;;15.62;25.90
13478;BME280;12598;62.382;17.344;2023-12-22T05:20:22;97747.03;;;15.60;25.90
13478;BME280;12598;62.382;17.344;2023-12-22T05:21:24;97747.66;;;15.62;25.76
13478;BME280;12598;62.382;17.344;2023-12-22T05:22:26;97742.53;;;15.60;25.79
13478;BME280;12598;62.382;17.344;2023-12-22T05:23:27;97752.97;;;15.62;25.86
13478;BME280;12598;62.382;17.344;2023-12-22T05:24:29;97739.25;;;15.52;25.83
13478;BME280;12598;62.382;17.344;2023-12-22T05:25:31;97752.34;;;15.60;25.89
13478;BME280;12598;62.382;17.344;2023-12-22T05:26:33;97749.50;;;15.61;26.10
13478;BME280;12598;62.382;17.344;2023-12-22T05:27:34;97753.19;;;15.60;25.68